Time;durP1;ratioP1;P1;durP2;ratioP2;P2;SDS_P1;SDS_P2;PMS_P1;PMS_P2;Temp;Humidity;BMP_temperature;BMP_pressure;BME280_temperature;BME280_humidity;BME280_pressure;Samples;Min_cycle;Max_cycle;Signal;HPM_P1;HPM_P2
2023/07/12 00:00:39;;;;;;;4.07;3.42;;;;;;;;;;5079150;28;20217;-69
2023/07/12 00:03:06;;;;;;;5.32;3.45;;;;;;;;;;5071143;28;20207;-69
2023/07/12 00:05:33;;;;;;;4.00;3.60;;;;;;;;;;5076367;28;20202;-69
2023/07/12 00:08:00;;;;;;;4.57;3.92;;;;;;;;;;5076467;28;20222;-69
2023/07/12 00:10:30;;;;;;;5.75;3.85;;;;;;;;;;5073863;28;20206;-68
2023/07/12 00:12:58;;;;;;;5.05;3.70;;;;;;;;;;5077516;28;20228;-69
2023/07/12 00:15:26;;;;;;;4.25;3.85;;;;;;;;;;5074381;28;20228;-69
2023/07/12 00:17:55;;;;;;;4.22;3.58;;;;;;;;;;5073166;28;20191;-67
2023/07/12 00:20:28;;;;;;;4.72;4.10;;;;;;;;;;5072247;28;20198;-68
2023/07/12 00:22:55;;;;;;;4.90;3.92;;;;;;;;;;5075939;28;20206;-67
2023/07/12 00:25:23;;;;;;;5.95;4.03;;;;;;;;;;5077032;28;20202;-66
2023/07/12 00:27:51;;;;;;;9.63;4.20;;;;;;;;;;5078400;28;20218;-66
2023/07/12 00:30:19;;;;;;;4.50;4.10;;;;;;;;;;5073663;28;20214;-70
2023/07/12 00:32:49;;;;;;;3.95;3.65;;;;;;;;;;5075408;28;20218;-67
2023/07/12 00:35:19;;;;;;;4.47;3.72;;;;;;;;;;5073608;28;20264;-69
2023/07/12 00:37:46;;;;;;;4.93;4.38;;;;;;;;;;5077461;28;20206;-66
2023/07/12 00:40:28;;;;;;;4.72;4.07;;;;;;;;;;5076144;28;20194;-69
2023/07/12 00:42:59;;;;;;;4.65;3.90;;;;;;;;;;5043864;28;20203;-67
2023/07/12 00:45:27;;;;;;;4.30;3.90;;;;;;;;;;5075797;28;20211;-67
2023/07/12 00:47:54;;;;;;;5.30;3.97;;;;;;;;;;5073669;28;20299;-65
2023/07/12 00:50:23;;;;;;;5.05;4.22;;;;;;;;;;5077010;28;20214;-65
2023/07/12 00:52:50;;;;;;;4.32;3.92;;;;;;;;;;5070863;28;20203;-64
2023/07/12 00:55:32;;;;;;;5.78;4.13;;;;;;;;;;5080202;28;20200;-67
2023/07/12 00:57:59;;;;;;;6.35;4.20;;;;;;;;;;5076799;28;20207;-65
2023/07/12 01:00:26;;;;;;;4.57;4.13;;;;;;;;;;5069023;28;20201;-66
2023/07/12 01:02:53;;;;;;;4.95;4.35;;;;;;;;;;5078023;28;20199;-67
2023/07/12 01:05:21;;;;;;;5.57;4.50;;;;;;;;;;5075748;28;20198;-68
2023/07/12 01:07:51;;;;;;;5.05;4.65;;;;;;;;;;5079658;28;20230;-65
2023/07/12 01:10:18;;;;;;;5.28;4.32;;;;;;;;;;5078478;28;20206;-67
2023/07/12 01:12:46;;;;;;;5.57;4.60;;;;;;;;;;5074482;28;20206;-66
2023/07/12 01:15:13;;;;;;;5.20;4.40;;;;;;;;;;5073702;28;20206;-66
2023/07/12 01:17:40;;;;;;;5.50;4.28;;;;;;;;;;5076019;28;20202;-66
2023/07/12 01:20:08;;;;;;;5.22;4.65;;;;;;;;;;5069927;28;20213;-65
2023/07/12 01:22:37;;;;;;;6.10;4.90;;;;;;;;;;5076865;28;20202;-67
2023/07/12 01:25:04;;;;;;;5.95;4.10;;;;;;;;;;5074053;28;20207;-68
2023/07/12 01:27:31;;;;;;;5.35;4.85;;;;;;;;;;5076184;28;20199;-67
2023/07/12 01:29:59;;;;;;;6.93;4.72;;;;;;;;;;5078186;28;20222;-64
2023/07/12 01:32:27;;;;;;;5.07;4.47;;;;;;;;;;5070281;28;20281;-68
2023/07/12 01:34:54;;;;;;;5.60;4.93;;;;;;;;;;5072770;28;20214;-65
2023/07/12 01:37:21;;;;;;;5.75;5.07;;;;;;;;;;5075444;28;20203;-66
2023/07/12 01:39:50;;;;;;;5.68;5.07;;;;;;;;;;5075338;28;20202;-66
2023/07/12 01:42:17;;;;;;;5.13;4.70;;;;;;;;;;5076488;28;20297;-63
2023/07/12 01:44:44;;;;;;;5.95;5.40;;;;;;;;;;5077459;28;20203;-65
2023/07/12 01:47:11;;;;;;;6.57;5.97;;;;;;;;;;5069399;28;20202;-65
2023/07/12 01:49:38;;;;;;;5.30;4.80;;;;;;;;;;5076150;28;20223;-65
2023/07/12 01:52:06;;;;;;;7.47;5.55;;;;;;;;;;5071339;28;20203;-63
2023/07/12 01:54:33;;;;;;;7.50;5.95;;;;;;;;;;5072662;28;20202;-68
2023/07/12 01:57:02;;;;;;;7.18;5.80;;;;;;;;;;5077679;28;20201;-69
2023/07/12 01:59:29;;;;;;;8.35;6.30;;;;;;;;;;5068508;28;20205;-66
2023/07/12 02:01:56;;;;;;;7.10;6.40;;;;;;;;;;5078242;28;20202;-67
2023/07/12 02:04:23;;;;;;;7.00;6.15;;;;;;;;;;5075801;28;20209;-66
2023/07/12 02:06:50;;;;;;;7.72;6.22;;;;;;;;;;5075469;28;20206;-64
2023/07/12 02:09:18;;;;;;;7.10;6.30;;;;;;;;;;5076638;28;20251;-65
2023/07/12 02:11:45;;;;;;;8.20;6.80;;;;;;;;;;5075273;28;20205;-66
2023/07/12 02:14:14;;;;;;;8.23;6.43;;;;;;;;;;5077828;28;20221;-68
2023/07/12 02:16:41;;;;;;;8.35;6.50;;;;;;;;;;5072335;28;20213;-66
2023/07/12 02:19:08;;;;;;;6.68;6.03;;;;;;;;;;5074538;28;20198;-67
2023/07/12 02:21:35;;;;;;;7.78;6.97;;;;;;;;;;5079309;28;20199;-65
2023/07/12 02:24:02;;;;;;;7.80;7.00;;;;;;;;;;5079792;28;20203;-65
2023/07/12 02:26:30;;;;;;;7.90;6.78;;;;;;;;;;5075738;28;20285;-65
2023/07/12 02:28:57;;;;;;;7.38;6.45;;;;;;;;;;5073987;28;20229;-67
2023/07/12 02:31:26;;;;;;;6.88;5.90;;;;;;;;;;5074545;28;20203;-66
2023/07/12 02:33:53;;;;;;;5.85;5.25;;;;;;;;;;5077458;28;20206;-66
2023/07/12 02:36:20;;;;;;;8.98;6.18;;;;;;;;;;5077171;28;20229;-65
2023/07/12 02:38:48;;;;;;;9.70;7.00;;;;;;;;;;5068742;28;20201;-67
2023/07/12 02:41:15;;;;;;;11.70;6.47;;;;;;;;;;5076441;28;20206;-68
2023/07/12 02:43:43;;;;;;;7.13;6.43;;;;;;;;;;5073498;28;20210;-66
2023/07/12 02:46:10;;;;;;;7.22;6.53;;;;;;;;;;5075078;28;20205;-69
2023/07/12 02:48:39;;;;;;;7.50;6.80;;;;;;;;;;5073397;28;20219;-69
2023/07/12 02:51:06;;;;;;;7.75;6.65;;;;;;;;;;5076009;28;20206;-68
2023/07/12 02:53:34;;;;;;;8.57;7.32;;;;;;;;;;5076198;28;20205;-69
2023/07/12 02:56:03;;;;;;;9.70;7.25;;;;;;;;;;5072223;28;20206;-68
2023/07/12 02:58:30;;;;;;;7.93;6.85;;;;;;;;;;5073628;28;20290;-65
2023/07/12 03:00:58;;;;;;;7.82;7.03;;;;;;;;;;5077410;28;20206;-66
2023/07/12 03:03:25;;;;;;;8.70;7.80;;;;;;;;;;5070928;28;20202;-67
2023/07/12 03:05:54;;;;;;;6.80;6.18;;;;;;;;;;5069016;28;20199;-67
2023/07/12 03:08:21;;;;;;;8.57;7.28;;;;;;;;;;5069492;28;20242;-66
2023/07/12 03:10:49;;;;;;;7.88;6.55;;;;;;;;;;5073527;28;20294;-68
2023/07/12 03:13:16;;;;;;;8.20;7.40;;;;;;;;;;5073679;28;20203;-67
2023/07/12 03:15:43;;;;;;;7.43;6.72;;;;;;;;;;5075582;28;20207;-67
2023/07/12 03:18:10;;;;;;;12.20;7.65;;;;;;;;;;5070829;28;20202;-69
2023/07/12 03:20:38;;;;;;;8.52;7.70;;;;;;;;;;5076595;28;20194;-68
2023/07/12 03:23:06;;;;;;;9.30;7.38;;;;;;;;;;5078104;28;20229;-65
2023/07/12 03:25:33;;;;;;;11.35;7.45;;;;;;;;;;5083153;28;20213;-65
2023/07/12 03:28:00;;;;;;;7.10;6.40;;;;;;;;;;5077029;28;20203;-67
2023/07/12 03:30:28;;;;;;;10.25;7.10;;;;;;;;;;5071673;28;20230;-67
2023/07/12 03:32:55;;;;;;;7.10;5.90;;;;;;;;;;5080867;28;20203;-66
2023/07/12 03:35:22;;;;;;;8.80;5.80;;;;;;;;;;5083929;28;20201;-68
2023/07/12 03:37:49;;;;;;;9.25;6.30;;;;;;;;;;5081413;28;20286;-67
2023/07/12 03:40:18;;;;;;;8.80;5.65;;;;;;;;;;5075405;28;20206;-70
2023/07/12 03:42:45;;;;;;;7.18;5.50;;;;;;;;;;5070855;28;20206;-64
2023/07/12 03:45:12;;;;;;;6.00;4.25;;;;;;;;;;5075868;28;20203;-67
2023/07/12 03:47:39;;;;;;;7.10;4.70;;;;;;;;;;5078869;28;20203;-67
2023/07/12 03:50:07;;;;;;;6.10;4.40;;;;;;;;;;5071914;28;20222;-68
2023/07/12 03:52:34;;;;;;;5.72;3.70;;;;;;;;;;5074710;28;20207;-69
2023/07/12 03:55:01;;;;;;;9.43;4.05;;;;;;;;;;5083816;28;20210;-69
2023/07/12 03:57:30;;;;;;;5.32;3.22;;;;;;;;;;5077736;28;20206;-67
2023/07/12 03:59:57;;;;;;;3.70;3.28;;;;;;;;;;5078917;28;20205;-68
2023/07/12 04:02:24;;;;;;;5.80;3.42;;;;;;;;;;5074328;28;20209;-68
2023/07/12 04:04:52;;;;;;;5.30;3.05;;;;;;;;;;5076813;28;20195;-67
2023/07/12 04:07:19;;;;;;;5.18;2.78;;;;;;;;;;5076836;28;20202;-66
2023/07/12 04:09:46;;;;;;;4.65;2.88;;;;;;;;;;5074484;28;20236;-66
2023/07/12 04:12:13;;;;;;;5.47;2.80;;;;;;;;;;5074656;28;20198;-67
2023/07/12 04:14:42;;;;;;;5.03;2.92;;;;;;;;;;5075809;28;20203;-68
2023/07/12 04:17:09;;;;;;;4.68;2.75;;;;;;;;;;5071114;28;20202;-66
2023/07/12 04:19:36;;;;;;;5.18;2.72;;;;;;;;;;5076807;28;20198;-65
2023/07/12 04:22:03;;;;;;;5.10;2.90;;;;;;;;;;5073361;28;20206;-66
2023/07/12 04:24:30;;;;;;;4.38;2.78;;;;;;;;;;5081895;28;20211;-68
2023/07/12 04:26:59;;;;;;;5.38;2.90;;;;;;;;;;5073702;28;20226;-68
2023/07/12 04:29:26;;;;;;;6.22;3.10;;;;;;;;;;5072128;28;20317;-67
2023/07/12 04:31:54;;;;;;;5.25;2.90;;;;;;;;;;5074374;28;20198;-67
2023/07/12 04:34:22;;;;;;;5.22;2.20;;;;;;;;;;5069709;28;20198;-72
2023/07/12 04:36:53;;;;;;;6.18;2.80;;;;;;;;;;5073331;28;20206;-72
2023/07/12 04:39:20;;;;;;;6.13;3.00;;;;;;;;;;5077011;28;20202;-73
2023/07/12 04:41:48;;;;;;;3.78;2.38;;;;;;;;;;5075626;28;20202;-73
2023/07/12 04:44:16;;;;;;;4.38;2.60;;;;;;;;;;5071080;28;20237;-72
2023/07/12 04:46:43;;;;;;;5.45;2.50;;;;;;;;;;5077908;28;20198;-72
2023/07/12 04:49:12;;;;;;;7.35;2.60;;;;;;;;;;5077963;28;20217;-72
2023/07/12 04:51:40;;;;;;;2.30;2.10;;;;;;;;;;5072964;28;20210;-73
2023/07/12 04:54:07;;;;;;;4.60;2.65;;;;;;;;;;5075011;28;20205;-73
2023/07/12 04:56:34;;;;;;;4.40;2.55;;;;;;;;;;5071915;28;20267;-73
2023/07/12 04:59:02;;;;;;;4.53;2.97;;;;;;;;;;5070711;28;20458;-73
2023/07/12 05:01:31;;;;;;;5.22;2.38;;;;;;;;;;5074592;28;20298;-73
2023/07/12 05:03:59;;;;;;;3.17;2.60;;;;;;;;;;5074164;28;20256;-73
2023/07/12 05:06:28;;;;;;;4.82;2.55;;;;;;;;;;5070474;28;20206;-72
2023/07/12 05:08:58;;;;;;;4.15;2.38;;;;;;;;;;5074846;28;20331;-72
2023/07/12 05:11:25;;;;;;;3.88;2.35;;;;;;;;;;5070396;28;20198;-72
2023/07/12 05:13:53;;;;;;;4.28;2.88;;;;;;;;;;5072857;28;20227;-73
2023/07/12 05:16:20;;;;;;;3.30;2.20;;;;;;;;;;5072489;28;20209;-73
2023/07/12 05:18:48;;;;;;;3.25;2.40;;;;;;;;;;5071491;28;20293;-73
2023/07/12 05:21:15;;;;;;;4.22;2.22;;;;;;;;;;5072774;28;20209;-73
2023/07/12 05:23:44;;;;;;;3.00;2.58;;;;;;;;;;5077518;28;20198;-72
2023/07/12 05:26:12;;;;;;;3.65;2.70;;;;;;;;;;5068581;28;20230;-73
2023/07/12 05:28:42;;;;;;;3.85;2.80;;;;;;;;;;5071056;28;20202;-73
2023/07/12 05:31:10;;;;;;;5.15;2.78;;;;;;;;;;5067904;28;20226;-72
2023/07/12 05:33:38;;;;;;;6.45;3.03;;;;;;;;;;5070633;28;20210;-73
2023/07/12 05:36:06;;;;;;;4.50;2.70;;;;;;;;;;5070014;28;20210;-74
2023/07/12 05:38:33;;;;;;;5.95;2.83;;;;;;;;;;5080602;28;20203;-73
2023/07/12 05:41:02;;;;;;;7.57;3.50;;;;;;;;;;5077025;28;20198;-73
2023/07/12 05:43:30;;;;;;;4.82;3.22;;;;;;;;;;5068818;28;20203;-73
2023/07/12 05:45:57;;;;;;;4.15;3.28;;;;;;;;;;5073162;28;20213;-74
2023/07/12 05:48:25;;;;;;;4.95;3.35;;;;;;;;;;5070254;28;20217;-73
2023/07/12 05:50:53;;;;;;;3.40;3.03;;;;;;;;;;5075275;28;20219;-74
2023/07/12 05:53:21;;;;;;;5.70;3.35;;;;;;;;;;5079557;28;20278;-73
2023/07/12 05:55:48;;;;;;;3.42;2.60;;;;;;;;;;5078493;28;20198;-74
2023/07/12 05:58:17;;;;;;;4.85;3.10;;;;;;;;;;5077247;28;20214;-73
2023/07/12 06:00:45;;;;;;;5.93;2.90;;;;;;;;;;5075615;28;20225;-72
2023/07/12 06:03:12;;;;;;;3.65;2.70;;;;;;;;;;5080507;28;20279;-74
2023/07/12 06:05:44;;;;;;;4.03;2.30;;;;;;;;;;5076422;28;20217;-73
2023/07/12 06:08:11;;;;;;;3.05;2.50;;;;;;;;;;5083928;28;20231;-73
2023/07/12 06:10:38;;;;;;;5.45;2.45;;;;;;;;;;5069854;28;20222;-72
2023/07/12 06:13:07;;;;;;;6.07;2.17;;;;;;;;;;5061054;28;20301;-74
2023/07/12 06:15:35;;;;;;;4.30;2.40;;;;;;;;;;5074101;28;20213;-74
2023/07/12 06:18:03;;;;;;;3.40;2.25;;;;;;;;;;5073888;28;20194;-73
2023/07/12 06:20:30;;;;;;;4.13;2.00;;;;;;;;;;5073920;28;20199;-72
2023/07/12 06:22:57;;;;;;;2.40;1.70;;;;;;;;;;5071810;28;20284;-73
2023/07/12 06:25:25;;;;;;;2.80;1.75;;;;;;;;;;5079834;28;20234;-72
2023/07/12 06:27:53;;;;;;;1.60;1.50;;;;;;;;;;5080505;28;20277;-73
2023/07/12 06:30:20;;;;;;;1.90;1.42;;;;;;;;;;5072711;28;20222;-74
2023/07/12 06:32:49;;;;;;;2.35;1.45;;;;;;;;;;5076747;28;20282;-74
2023/07/12 06:35:17;;;;;;;1.23;1.13;;;;;;;;;;5078449;28;20244;-74
2023/07/12 06:37:44;;;;;;;2.03;1.40;;;;;;;;;;5071746;28;20202;-72
2023/07/12 06:40:12;;;;;;;1.58;1.33;;;;;;;;;;5068240;28;20297;-71
2023/07/12 06:42:39;;;;;;;1.83;1.60;;;;;;;;;;5073680;28;20198;-73
2023/07/12 06:45:07;;;;;;;2.83;1.40;;;;;;;;;;5075859;28;20202;-73
2023/07/12 06:47:34;;;;;;;4.28;1.40;;;;;;;;;;5075838;28;20222;-72
2023/07/12 06:50:04;;;;;;;3.35;1.30;;;;;;;;;;5068635;28;20244;-73
2023/07/12 06:52:31;;;;;;;1.35;1.08;;;;;;;;;;5073996;28;20239;-73
2023/07/12 06:54:59;;;;;;;1.60;1.17;;;;;;;;;;5075083;28;20255;-74
2023/07/12 06:57:26;;;;;;;2.17;1.60;;;;;;;;;;5069616;28;20207;-71
2023/07/12 06:59:54;;;;;;;1.77;1.25;;;;;;;;;;5075192;28;20206;-72
2023/07/12 07:02:21;;;;;;;1.85;1.48;;;;;;;;;;5082495;28;20207;-72
2023/07/12 07:04:48;;;;;;;2.42;1.38;;;;;;;;;;5075777;28;20256;-71
2023/07/12 07:07:17;;;;;;;1.48;1.20;;;;;;;;;;5078777;28;20210;-72
2023/07/12 07:09:45;;;;;;;2.28;1.10;;;;;;;;;;5076690;28;20245;-72
2023/07/12 07:12:13;;;;;;;4.00;1.20;;;;;;;;;;5086281;28;20194;-73
2023/07/12 07:14:40;;;;;;;1.38;1.20;;;;;;;;;;5075974;28;20206;-73
2023/07/12 07:17:10;;;;;;;1.25;1.05;;;;;;;;;;5074792;28;20234;-75
2023/07/12 07:19:38;;;;;;;2.50;1.02;;;;;;;;;;5077215;28;20206;-76
2023/07/12 07:22:05;;;;;;;0.90;0.80;;;;;;;;;;5083922;28;20205;-75
2023/07/12 07:24:34;;;;;;;1.13;1.00;;;;;;;;;;5085922;28;20206;-75
2023/07/12 07:27:01;;;;;;;2.00;0.95;;;;;;;;;;5078659;28;20209;-75
2023/07/12 07:29:29;;;;;;;1.95;1.10;;;;;;;;;;5073966;28;20215;-75
2023/07/12 07:31:56;;;;;;;1.70;1.13;;;;;;;;;;5081696;28;20231;-73
2023/07/12 07:34:23;;;;;;;0.70;0.70;;;;;;;;;;5084313;28;20307;-75
2023/07/12 07:36:51;;;;;;;0.90;0.90;;;;;;;;;;5078339;28;20195;-74
2023/07/12 07:39:18;;;;;;;2.25;1.20;;;;;;;;;;5078428;28;20203;-73
2023/07/12 07:41:47;;;;;;;1.75;0.95;;;;;;;;;;5079057;28;20210;-72
2023/07/12 07:44:14;;;;;;;1.33;0.90;;;;;;;;;;5079597;28;20210;-73
2023/07/12 07:46:42;;;;;;;2.17;0.90;;;;;;;;;;5075570;28;20199;-73
2023/07/12 07:49:10;;;;;;;2.75;1.00;;;;;;;;;;5080884;28;20234;-74
2023/07/12 07:51:38;;;;;;;1.25;1.10;;;;;;;;;;5080698;28;20219;-72
2023/07/12 07:54:05;;;;;;;0.80;0.80;;;;;;;;;;5079482;28;20214;-75
2023/07/12 07:56:33;;;;;;;0.90;0.90;;;;;;;;;;5078931;28;20203;-73
2023/07/12 07:59:01;;;;;;;0.93;0.93;;;;;;;;;;5077147;28;20203;-73
2023/07/12 08:01:29;;;;;;;0.93;0.90;;;;;;;;;;5081700;28;20195;-76
2023/07/12 08:03:57;;;;;;;1.23;0.90;;;;;;;;;;5079882;28;20207;-72
2023/07/12 08:06:24;;;;;;;0.90;0.90;;;;;;;;;;5081503;28;20208;-73
2023/07/12 08:08:51;;;;;;;1.33;1.05;;;;;;;;;;5076538;28;20234;-72
2023/07/12 08:11:18;;;;;;;2.05;1.05;;;;;;;;;;5079500;28;20222;-71
2023/07/12 08:13:46;;;;;;;2.50;1.08;;;;;;;;;;5077010;28;20202;-71
2023/07/12 08:16:15;;;;;;;3.08;0.98;;;;;;;;;;5074696;28;20206;-71
2023/07/12 08:18:42;;;;;;;3.08;1.20;;;;;;;;;;5076125;28;20205;-72
2023/07/12 08:21:10;;;;;;;1.13;1.10;;;;;;;;;;5075869;28;20238;-72
2023/07/12 08:23:37;;;;;;;1.10;1.00;;;;;;;;;;5078219;28;20335;-72
2023/07/12 08:26:05;;;;;;;1.05;0.95;;;;;;;;;;5083403;28;20215;-70
2023/07/12 08:28:33;;;;;;;1.13;1.00;;;;;;;;;;5077617;28;20205;-73
2023/07/12 08:31:01;;;;;;;1.25;1.10;;;;;;;;;;5077004;28;20248;-72
2023/07/12 08:33:29;;;;;;;1.30;1.20;;;;;;;;;;5078308;28;20205;-69
2023/07/12 08:35:57;;;;;;;1.30;1.20;;;;;;;;;;5076874;28;20283;-74
2023/07/12 08:38:24;;;;;;;1.65;1.35;;;;;;;;;;5079865;28;20198;-72
2023/07/12 08:40:53;;;;;;;0.88;0.88;;;;;;;;;;5079459;28;20221;-72
2023/07/12 08:43:22;;;;;;;3.70;1.45;;;;;;;;;;5085234;28;20206;-72
2023/07/12 08:45:51;;;;;;;1.00;1.00;;;;;;;;;;5073382;28;20202;-71
2023/07/12 08:48:20;;;;;;;2.85;1.25;;;;;;;;;;5080220;28;20217;-74
2023/07/12 08:50:50;;;;;;;1.48;1.05;;;;;;;;;;5078352;28;20241;-73
2023/07/12 08:53:19;;;;;;;3.75;1.02;;;;;;;;;;5075263;28;20210;-73
2023/07/12 08:55:47;;;;;;;1.42;1.20;;;;;;;;;;5081427;28;20198;-74
2023/07/12 08:58:19;;;;;;;0.90;0.90;;;;;;;;;;5086784;28;20220;-72
2023/07/12 09:00:47;;;;;;;1.33;1.23;;;;;;;;;;5073057;28;20278;-73
2023/07/12 09:03:14;;;;;;;4.10;1.25;;;;;;;;;;5080583;28;20206;-73
2023/07/12 09:05:42;;;;;;;2.80;1.25;;;;;;;;;;5084513;28;20210;-76
2023/07/12 09:08:17;;;;;;;1.55;1.35;;;;;;;;;;5077523;28;20238;-73
2023/07/12 09:10:47;;;;;;;1.60;1.30;;;;;;;;;;5081153;28;20230;-75
2023/07/12 09:13:16;;;;;;;2.20;1.30;;;;;;;;;;5078594;28;20206;-72
2023/07/12 09:15:46;;;;;;;2.25;1.13;;;;;;;;;;5079189;28;20198;-74
2023/07/12 09:18:24;;;;;;;1.42;1.33;;;;;;;;;;5075909;28;20210;-72
2023/07/12 09:20:52;;;;;;;1.30;1.20;;;;;;;;;;5075560;28;20240;-74
2023/07/12 09:23:21;;;;;;;1.40;1.30;;;;;;;;;;5080412;28;20293;-74
2023/07/12 09:25:54;;;;;;;2.15;1.38;;;;;;;;;;5076766;28;20294;-74
2023/07/12 09:28:21;;;;;;;2.20;1.40;;;;;;;;;;5080631;28;20202;-72
2023/07/12 09:30:50;;;;;;;2.05;1.40;;;;;;;;;;5070631;28;20223;-72
2023/07/12 09:33:18;;;;;;;2.35;1.27;;;;;;;;;;5070658;28;20206;-74
2023/07/12 09:35:47;;;;;;;2.90;1.30;;;;;;;;;;5081017;28;20202;-73
2023/07/12 09:38:15;;;;;;;1.00;1.00;;;;;;;;;;5076601;28;20214;-71
2023/07/12 09:40:47;;;;;;;1.40;1.30;;;;;;;;;;5079723;28;20221;-74
2023/07/12 09:43:16;;;;;;;3.33;1.30;;;;;;;;;;5089199;28;20217;-71
2023/07/12 09:45:45;;;;;;;2.60;1.15;;;;;;;;;;5080145;28;20244;-72
2023/07/12 09:48:22;;;;;;;2.38;1.30;;;;;;;;;;5080782;28;20214;-72
2023/07/12 09:50:53;;;;;;;1.40;1.30;;;;;;;;;;5077503;28;20218;-73
2023/07/12 09:53:27;;;;;;;1.30;1.20;;;;;;;;;;5076838;28;20281;-73
2023/07/12 09:55:59;;;;;;;1.00;0.95;;;;;;;;;;5077748;28;20205;-73
2023/07/12 09:58:31;;;;;;;1.50;1.40;;;;;;;;;;5074739;28;20247;-73
2023/07/12 10:01:01;;;;;;;3.78;1.23;;;;;;;;;;5075626;28;20211;-75
2023/07/12 10:03:33;;;;;;;1.27;1.17;;;;;;;;;;5073125;28;20194;-75
2023/07/12 10:06:03;;;;;;;2.42;1.17;;;;;;;;;;5078988;28;20207;-74
2023/07/12 10:08:40;;;;;;;2.22;1.20;;;;;;;;;;5071650;28;20238;-74
2023/07/12 10:11:13;;;;;;;1.75;1.25;;;;;;;;;;5066637;28;20283;-76
2023/07/12 10:13:43;;;;;;;4.45;1.33;;;;;;;;;;5074308;28;20207;-70
2023/07/12 10:16:14;;;;;;;1.50;1.17;;;;;;;;;;5070109;28;20206;-74
2023/07/12 10:18:42;;;;;;;2.22;1.30;;;;;;;;;;5067870;28;20198;-74
2023/07/12 10:21:11;;;;;;;1.40;1.20;;;;;;;;;;5075951;28;20287;-73
2023/07/12 10:23:43;;;;;;;1.50;1.27;;;;;;;;;;5072268;28;20241;-72
2023/07/12 10:26:14;;;;;;;2.78;1.25;;;;;;;;;;5079837;28;20198;-73
2023/07/12 10:28:45;;;;;;;1.45;1.35;;;;;;;;;;5078973;28;20294;-73
2023/07/12 10:31:20;;;;;;;1.20;1.10;;;;;;;;;;5072318;28;20336;-74
2023/07/12 10:33:49;;;;;;;1.73;1.40;;;;;;;;;;5071467;28;20238;-76
2023/07/12 10:36:20;;;;;;;1.50;1.20;;;;;;;;;;5081693;28;20206;-74
2023/07/12 10:38:48;;;;;;;3.47;1.50;;;;;;;;;;5076449;28;20203;-71
2023/07/12 10:41:20;;;;;;;1.20;1.20;;;;;;;;;;5070116;28;20203;-74
2023/07/12 10:43:49;;;;;;;1.67;1.38;;;;;;;;;;5081767;28;20213;-73
2023/07/12 10:46:19;;;;;;;4.47;1.20;;;;;;;;;;5078067;28;20263;-76
2023/07/12 10:48:49;;;;;;;2.38;1.27;;;;;;;;;;5078942;28;20203;-73
2023/07/12 10:51:30;;;;;;;1.65;1.50;;;;;;;;;;5080750;28;20219;-74
2023/07/12 10:53:57;;;;;;;1.20;1.20;;;;;;;;;;5077049;28;20202;-73
2023/07/12 10:56:28;;;;;;;1.42;1.30;;;;;;;;;;5080443;28;20205;-75
2023/07/12 10:58:58;;;;;;;1.65;1.27;;;;;;;;;;5082564;28;20198;-73
2023/07/12 11:01:50;;;;;;;1.42;1.30;;;;;;;;;;5073333;28;20214;-74
2023/07/12 11:04:18;;;;;;;3.90;1.23;;;;;;;;;;5075120;28;20213;-75
2023/07/12 11:07:02;;;;;;;1.25;1.15;;;;;;;;;;5068891;28;20209;-74
2023/07/12 11:09:44;;;;;;;1.98;1.40;;;;;;;;;;5076896;28;20240;-74
2023/07/12 11:12:13;;;;;;;1.42;1.33;;;;;;;;;;5071882;28;20227;-74
2023/07/12 11:14:58;;;;;;;1.50;1.30;;;;;;;;;;5076799;28;20200;-73
2023/07/12 11:17:28;;;;;;;3.90;1.45;;;;;;;;;;5075667;28;20271;-74
2023/07/12 11:20:04;;;;;;;1.58;1.38;;;;;;;;;;5078370;28;20225;-73
2023/07/12 11:22:54;;;;;;;1.52;1.40;;;;;;;;;;5073095;28;20202;-74
2023/07/12 11:25:30;;;;;;;1.10;1.00;;;;;;;;;;5073647;28;20323;-71
2023/07/12 11:28:01;;;;;;;1.50;1.40;;;;;;;;;;5075499;28;20230;-73
2023/07/12 11:30:45;;;;;;;3.03;1.38;;;;;;;;;;5077897;28;20198;-73
2023/07/12 11:33:16;;;;;;;2.58;1.10;;;;;;;;;;5073314;28;20225;-74
2023/07/12 11:35:47;;;;;;;1.20;1.10;;;;;;;;;;5075364;28;20207;-75
2023/07/12 11:38:15;;;;;;;4.63;1.50;;;;;;;;;;5080692;28;20206;-74
2023/07/12 11:40:43;;;;;;;3.13;1.38;;;;;;;;;;5071289;28;20199;-74
2023/07/12 11:43:35;;;;;;;1.58;1.25;;;;;;;;;;5074932;28;20201;-75
2023/07/12 11:46:04;;;;;;;2.35;1.30;;;;;;;;;;5050126;28;20249;-73
2023/07/12 11:48:34;;;;;;;1.42;1.10;;;;;;;;;;5071018;28;20206;-77
2023/07/12 11:51:04;;;;;;;2.20;1.13;;;;;;;;;;5067023;28;20209;-80
2023/07/12 11:53:31;;;;;;;1.38;1.10;;;;;;;;;;5080492;28;20218;-79
2023/07/12 11:55:58;;;;;;;3.55;1.10;;;;;;;;;;5082002;28;20201;-74
2023/07/12 11:58:27;;;;;;;1.25;1.13;;;;;;;;;;5073775;28;20207;-73
2023/07/12 12:00:56;;;;;;;1.27;1.17;;;;;;;;;;5069815;28;20248;-69
2023/07/12 12:03:25;;;;;;;2.15;1.10;;;;;;;;;;5072065;28;20270;-68
2023/07/12 12:05:52;;;;;;;1.80;1.00;;;;;;;;;;5072162;28;20195;-66
2023/07/12 12:08:21;;;;;;;1.88;0.88;;;;;;;;;;5074628;28;20238;-66
2023/07/12 12:10:49;;;;;;;3.17;1.10;;;;;;;;;;5078440;28;20216;-67
2023/07/12 12:13:17;;;;;;;1.10;1.08;;;;;;;;;;5079340;28;20229;-71
2023/07/12 12:15:46;;;;;;;1.98;1.30;;;;;;;;;;5081281;28;20202;-66
2023/07/12 12:18:15;;;;;;;1.27;1.08;;;;;;;;;;5072797;28;20207;-65
2023/07/12 12:20:52;;;;;;;1.85;1.00;;;;;;;;;;5071964;28;20285;-69
2023/07/12 12:23:21;;;;;;;2.08;1.00;;;;;;;;;;5074140;28;20194;-67
2023/07/12 12:25:49;;;;;;;1.25;1.15;;;;;;;;;;5078125;28;20198;-69
2023/07/12 12:28:25;;;;;;;1.30;1.20;;;;;;;;;;5081234;28;20198;-68
2023/07/12 12:30:58;;;;;;;1.83;1.27;;;;;;;;;;5075653;28;20229;-66
2023/07/12 12:33:27;;;;;;;1.10;1.05;;;;;;;;;;5071824;28;20225;-70
2023/07/12 12:35:59;;;;;;;1.60;1.00;;;;;;;;;;5074813;28;20206;-67
2023/07/12 12:38:28;;;;;;;0.90;0.90;;;;;;;;;;5079183;28;20207;-67
2023/07/12 12:41:05;;;;;;;3.10;1.30;;;;;;;;;;5076569;28;20285;-69
2023/07/12 12:43:32;;;;;;;0.90;0.90;;;;;;;;;;5071643;28;20193;-66
2023/07/12 12:46:00;;;;;;;1.95;1.13;;;;;;;;;;5075871;28;20198;-68
2023/07/12 12:48:27;;;;;;;1.95;0.90;;;;;;;;;;5073023;28;20300;-67
2023/07/12 12:50:56;;;;;;;2.40;1.10;;;;;;;;;;5083389;28;20258;-66
2023/07/12 12:53:23;;;;;;;0.90;0.90;;;;;;;;;;5073603;28;20219;-65
2023/07/12 12:55:51;;;;;;;1.73;0.95;;;;;;;;;;5080299;28;20210;-68
2023/07/12 12:58:18;;;;;;;2.38;1.05;;;;;;;;;;5074738;28;20200;-68
2023/07/12 13:00:46;;;;;;;3.50;0.95;;;;;;;;;;5077370;28;20233;-67
2023/07/12 13:03:15;;;;;;;1.63;1.00;;;;;;;;;;5073346;28;20207;-66
2023/07/12 13:05:42;;;;;;;1.17;1.10;;;;;;;;;;5076647;28;20207;-67
2023/07/12 13:08:17;;;;;;;1.40;1.30;;;;;;;;;;5075931;28;20233;-68
2023/07/12 13:10:44;;;;;;;4.00;1.08;;;;;;;;;;5071800;28;20205;-66
2023/07/12 13:13:15;;;;;;;2.45;1.23;;;;;;;;;;5074890;28;20317;-70
2023/07/12 13:15:42;;;;;;;1.58;1.30;;;;;;;;;;5071554;28;20199;-66
2023/07/12 13:18:11;;;;;;;1.02;0.90;;;;;;;;;;5076458;28;20197;-66
2023/07/12 13:20:38;;;;;;;1.00;1.00;;;;;;;;;;5086529;28;20217;-69
2023/07/12 13:23:05;;;;;;;2.65;1.00;;;;;;;;;;5085547;28;20207;-64
2023/07/12 13:25:36;;;;;;;3.92;1.00;;;;;;;;;;5085177;28;20206;-66
2023/07/12 13:28:03;;;;;;;6.50;1.05;;;;;;;;;;5083979;28;20217;-66
2023/07/12 13:30:33;;;;;;;2.58;0.90;;;;;;;;;;5082210;28;20271;-66
2023/07/12 13:33:00;;;;;;;1.08;0.98;;;;;;;;;;5073882;28;20222;-67
2023/07/12 13:35:28;;;;;;;1.90;0.90;;;;;;;;;;5078014;28;20194;-66
2023/07/12 13:37:55;;;;;;;1.63;0.90;;;;;;;;;;5078421;28;20207;-68
2023/07/12 13:40:23;;;;;;;1.95;1.05;;;;;;;;;;5082100;28;20222;-67
2023/07/12 13:42:53;;;;;;;1.08;0.90;;;;;;;;;;5077709;28;20213;-70
2023/07/12 13:45:20;;;;;;;2.63;0.77;;;;;;;;;;5072161;28;20206;-69
2023/07/12 13:47:47;;;;;;;0.90;0.90;;;;;;;;;;5085688;28;20213;-66
2023/07/12 13:50:15;;;;;;;2.72;0.73;;;;;;;;;;5081714;28;20203;-66
2023/07/12 13:52:43;;;;;;;2.47;0.80;;;;;;;;;;5083770;28;20226;-67
2023/07/12 13:55:14;;;;;;;1.60;0.90;;;;;;;;;;5080864;28;20289;-67
2023/07/12 13:57:41;;;;;;;2.33;1.00;;;;;;;;;;5071318;28;20272;-65
2023/07/12 14:00:15;;;;;;;1.67;0.90;;;;;;;;;;5071527;28;20209;-67
2023/07/12 14:02:44;;;;;;;2.75;0.82;;;;;;;;;;5073275;28;20207;-70
2023/07/12 14:05:12;;;;;;;2.70;0.80;;;;;;;;;;5069153;28;20206;-66
2023/07/12 14:07:42;;;;;;;2.17;1.05;;;;;;;;;;5071597;28;20221;-67
2023/07/12 14:10:12;;;;;;;1.10;0.88;;;;;;;;;;5080049;28;20212;-67
2023/07/12 14:12:40;;;;;;;1.13;0.95;;;;;;;;;;5077311;28;20230;-65
2023/07/12 14:15:07;;;;;;;2.17;0.95;;;;;;;;;;5084708;28;20236;-66
2023/07/12 14:17:35;;;;;;;0.98;0.90;;;;;;;;;;5079283;28;20198;-65
2023/07/12 14:20:03;;;;;;;1.48;0.80;;;;;;;;;;5078840;28;20210;-67
2023/07/12 14:22:31;;;;;;;2.95;0.90;;;;;;;;;;5081328;28;20209;-65
2023/07/12 14:24:59;;;;;;;2.65;1.05;;;;;;;;;;5068828;28;20210;-69
2023/07/12 14:27:28;;;;;;;2.33;1.20;;;;;;;;;;5072911;28;20203;-69
2023/07/12 14:29:56;;;;;;;4.28;1.00;;;;;;;;;;5077194;28;20210;-67
2023/07/12 14:32:24;;;;;;;6.93;1.15;;;;;;;;;;5081275;28;20222;-69
2023/07/12 14:34:54;;;;;;;5.03;1.15;;;;;;;;;;5075830;28;20215;-66
2023/07/12 14:37:22;;;;;;;1.10;0.82;;;;;;;;;;5082145;28;20198;-65
2023/07/12 14:39:49;;;;;;;2.15;1.08;;;;;;;;;;5074124;28;20198;-69
2023/07/12 14:42:18;;;;;;;1.30;0.90;;;;;;;;;;5080066;28;20212;-68
2023/07/12 14:44:45;;;;;;;2.42;1.13;;;;;;;;;;5081860;28;20205;-66
2023/07/12 14:47:12;;;;;;;1.63;1.00;;;;;;;;;;5077006;28;20213;-67
2023/07/12 14:49:40;;;;;;;1.02;0.93;;;;;;;;;;5079898;28;20207;-67
2023/07/12 14:52:18;;;;;;;0.80;0.80;;;;;;;;;;5078776;28;20206;-67